createdAt,value
2022-11-04T00:02:12.478Z,7.90
2022-11-04T00:04:58.005Z,8.00
2022-11-04T00:08:02.055Z,8.00
2022-11-04T00:11:06.203Z,8.10
2022-11-04T00:13:54.343Z,8.20
2022-11-04T00:16:58.790Z,8.20
2022-11-04T00:20:03.130Z,8.30
2022-11-04T00:23:07.872Z,8.30
2022-11-04T00:26:11.966Z,8.30
2022-11-04T00:28:58.082Z,8.30
2022-11-04T00:32:15.400Z,8.20
2022-11-04T00:35:02.942Z,8.20
2022-11-04T00:37:50.580Z,8.20
2022-11-04T00:40:38.788Z,8.20
2022-11-04T00:43:26.609Z,8.20
2022-11-04T00:46:14.316Z,8.10
2022-11-04T00:49:03.021Z,8.10
2022-11-04T00:51:50.290Z,8.00
2022-11-04T00:54:38.723Z,8.00
2022-11-04T00:57:26.456Z,8.00
2022-11-04T01:00:12.603Z,7.80
2022-11-04T01:03:00.114Z,7.80
2022-11-04T01:05:46.132Z,7.80
2022-11-04T01:08:32.084Z,7.80
2022-11-04T01:11:18.394Z,7.70
2022-11-04T01:14:04.657Z,7.70
2022-11-04T01:16:50.841Z,7.70
2022-11-04T01:19:36.605Z,7.70
2022-11-04T01:22:21.933Z,7.60
2022-11-04T01:25:08.728Z,7.60
2022-11-04T01:27:55.717Z,7.60
2022-11-04T01:30:41.245Z,7.60
2022-11-04T01:33:26.611Z,7.50
2022-11-04T01:36:12.411Z,7.50
2022-11-04T01:39:00.424Z,7.50
2022-11-04T01:41:46.481Z,7.50
2022-11-04T01:45:00.830Z,7.50
2022-11-04T01:48:02.077Z,7.60
2022-11-04T01:50:49.271Z,7.70
2022-11-04T01:53:41.576Z,7.80
2022-11-04T01:56:28.753Z,7.90
2022-11-04T01:59:21.429Z,7.90
2022-11-04T02:02:07.271Z,7.90
2022-11-04T02:04:56.206Z,8.00
2022-11-04T02:07:44.881Z,8.00
2022-11-04T02:10:31.702Z,8.10
2022-11-04T02:13:16.979Z,8.10
2022-11-04T02:16:11.132Z,8.10
2022-11-04T02:18:59.516Z,8.20
2022-11-04T02:21:48.189Z,8.20
2022-11-04T02:25:09.734Z,8.30
2022-11-04T02:28:09.230Z,8.20
2022-11-04T02:31:17.487Z,8.20
2022-11-04T02:34:21.804Z,8.10
2022-11-04T02:37:39.303Z,8.10
2022-11-04T02:40:44.125Z,8.10
2022-11-04T02:43:32.456Z,8.00
2022-11-04T02:46:33.865Z,8.00
2022-11-04T02:49:30.124Z,8.00
2022-11-04T02:52:25.985Z,8.00
2022-11-04T02:55:23.510Z,7.90
2022-11-04T02:58:29.795Z,8.00
2022-11-04T03:01:20.913Z,7.90
2022-11-04T03:04:13.474Z,7.90
2022-11-04T03:07:01.970Z,7.90
2022-11-04T03:09:56.026Z,8.00
2022-11-04T03:12:51.566Z,8.00
2022-11-04T03:15:38.744Z,8.00
2022-11-04T03:18:57.029Z,8.00
2022-11-04T03:22:01.779Z,8.10
2022-11-04T03:24:48.799Z,8.20
2022-11-04T03:28:09.155Z,8.20
2022-11-04T03:30:59.276Z,8.30
2022-11-04T03:33:49.884Z,8.40
2022-11-04T03:36:35.186Z,8.50
2022-11-04T03:39:20.958Z,8.50
2022-11-04T03:42:30.798Z,8.60
2022-11-04T03:45:16.711Z,8.60
2022-11-04T03:48:02.750Z,8.70
2022-11-04T03:50:49.048Z,8.70
2022-11-04T03:53:34.683Z,8.70
2022-11-04T03:57:02.387Z,8.70
2022-11-04T04:00:16.633Z,8.70
2022-11-04T04:03:28.559Z,8.70
2022-11-04T04:06:24.786Z,8.80
2022-11-04T04:09:26.677Z,8.80
2022-11-04T04:12:16.104Z,8.90
2022-11-04T04:15:21.790Z,8.90
2022-11-04T04:18:13.795Z,8.80
2022-11-04T04:21:01.766Z,8.90
2022-11-04T04:24:09.791Z,8.90
2022-11-04T04:27:14.917Z,8.80
2022-11-04T04:30:07.769Z,8.80
2022-11-04T04:33:20.485Z,8.90
2022-11-04T04:36:09.624Z,8.90
2022-11-04T04:39:18.955Z,8.90
2022-11-04T04:42:23.784Z,8.90
2022-11-04T04:45:10.846Z,8.90
2022-11-04T04:47:57.018Z,9.00
2022-11-04T04:50:46.799Z,9.00
2022-11-04T04:53:32.432Z,9.00
2022-11-04T04:56:17.990Z,9.00
2022-11-04T04:59:03.636Z,9.00
2022-11-04T05:01:49.082Z,9.10
2022-11-04T05:04:34.764Z,9.10
2022-11-04T05:07:20.517Z,9.10
2022-11-04T05:10:07.898Z,9.10
2022-11-04T05:13:11.798Z,9.10
2022-11-04T05:16:03.470Z,9.20
2022-11-04T05:18:48.784Z,9.20
2022-11-04T05:21:36.990Z,9.20
2022-11-04T05:24:22.597Z,9.20
2022-11-04T05:27:08.418Z,9.30
2022-11-04T05:29:56.166Z,9.30
2022-11-04T05:32:44.613Z,9.40
2022-11-04T05:35:32.266Z,9.40
2022-11-04T05:38:19.728Z,9.40
2022-11-04T05:41:06.573Z,9.40
2022-11-04T05:44:03.881Z,9.50
2022-11-04T05:46:49.299Z,9.40
2022-11-04T05:49:37.069Z,9.50
2022-11-04T05:52:23.096Z,9.50
2022-11-04T05:55:08.717Z,9.40
2022-11-04T05:57:54.365Z,9.40
2022-11-04T06:00:43.105Z,9.40
2022-11-04T06:03:30.474Z,9.30
2022-11-04T06:06:17.863Z,9.30
2022-11-04T06:09:05.929Z,9.30
2022-11-04T06:11:51.083Z,9.20
2022-11-04T06:14:36.799Z,9.20
2022-11-04T06:17:22.663Z,9.20
2022-11-04T06:20:08.718Z,9.30
2022-11-04T06:22:54.151Z,9.30
2022-11-04T06:25:39.952Z,9.40
2022-11-04T06:28:25.261Z,9.40
2022-11-04T06:31:12.608Z,9.50
2022-11-04T06:33:57.946Z,9.60
2022-11-04T06:36:45.965Z,9.60
2022-11-04T06:39:31.584Z,9.70
2022-11-04T06:42:16.771Z,9.80
2022-11-04T06:45:02.210Z,9.80
2022-11-04T06:47:50.167Z,9.90
2022-11-04T06:50:35.549Z,9.90
2022-11-04T06:53:23.243Z,10.00
2022-11-04T06:56:10.079Z,10.00
2022-11-04T06:58:57.093Z,10.00
2022-11-04T07:01:43.042Z,10.10
2022-11-04T07:04:29.093Z,10.10
2022-11-04T07:07:14.770Z,10.20
2022-11-04T07:10:03.148Z,10.30
2022-11-04T07:12:51.174Z,10.30
2022-11-04T07:15:40.708Z,10.30
2022-11-04T07:18:26.767Z,10.30
2022-11-04T07:21:12.993Z,10.40
2022-11-04T07:23:58.678Z,10.40
2022-11-04T07:26:44.286Z,10.40
2022-11-04T07:29:29.992Z,10.40
2022-11-04T07:32:15.154Z,10.40
2022-11-04T07:35:02.888Z,10.40
2022-11-04T07:37:48.482Z,10.50
2022-11-04T07:40:34.550Z,10.50
2022-11-04T07:43:20.157Z,10.50
2022-11-04T07:46:08.986Z,10.70
2022-11-04T07:48:58.256Z,10.80
2022-11-04T07:51:45.752Z,10.90
2022-11-04T07:54:31.135Z,11.00
2022-11-04T07:57:16.820Z,11.10
2022-11-04T08:00:05.527Z,11.30
2022-11-04T08:02:53.755Z,11.40
2022-11-04T08:05:41.984Z,11.50
2022-11-04T08:08:30.309Z,11.60
2022-11-04T08:11:19.009Z,11.50
2022-11-04T08:14:04.865Z,11.60
2022-11-04T08:16:53.873Z,11.70
2022-11-04T08:19:41.392Z,11.70
2022-11-04T08:22:31.686Z,11.60
2022-11-04T08:25:18.660Z,11.70
2022-11-04T08:28:05.009Z,11.60
2022-11-04T08:31:03.428Z,11.60
2022-11-04T08:33:49.091Z,11.60
2022-11-04T08:36:38.375Z,11.80
2022-11-04T08:39:24.553Z,11.80
2022-11-04T08:42:13.182Z,11.80
2022-11-04T08:45:00.598Z,11.70
2022-11-04T08:47:46.300Z,11.70
2022-11-04T08:50:31.909Z,11.80
2022-11-04T08:53:17.847Z,11.90
2022-11-04T08:56:15.713Z,12.10
2022-11-04T08:59:02.604Z,12.20
2022-11-04T09:01:48.791Z,12.20
2022-11-04T09:04:34.746Z,12.10
2022-11-04T09:07:22.582Z,12.10
2022-11-04T09:10:09.314Z,12.10
2022-11-04T09:12:54.726Z,11.90
2022-11-04T09:15:40.245Z,12.00
2022-11-04T09:18:25.570Z,12.00
2022-11-04T09:21:12.134Z,12.00
2022-11-04T09:24:00.110Z,12.00
2022-11-04T09:26:48.625Z,11.90
2022-11-04T09:29:36.311Z,12.00
2022-11-04T09:32:21.846Z,12.00
2022-11-04T09:35:07.748Z,12.10
2022-11-04T09:37:53.165Z,12.10
2022-11-04T09:40:38.672Z,12.20
2022-11-04T09:43:45.669Z,12.20
2022-11-04T09:46:33.260Z,12.20
2022-11-04T09:49:22.346Z,12.30
2022-11-04T09:52:20.513Z,12.30
2022-11-04T09:55:14.905Z,12.30
2022-11-04T09:58:00.388Z,12.30
2022-11-04T10:01:04.583Z,12.30
2022-11-04T10:04:14.560Z,12.40
2022-11-04T10:07:16.957Z,12.40
2022-11-04T10:10:12.303Z,12.40
2022-11-04T10:13:19.279Z,12.20
2022-11-04T10:16:29.658Z,12.10
2022-11-04T10:19:33.813Z,12.10
2022-11-04T10:22:57.568Z,12.20
2022-11-04T10:25:51.670Z,12.20
2022-11-04T10:28:44.206Z,12.30
2022-11-04T10:31:29.469Z,12.40
2022-11-04T10:34:38.741Z,12.30
2022-11-04T10:37:25.615Z,12.40
2022-11-04T10:40:28.958Z,12.50
2022-11-04T10:43:19.024Z,12.30
2022-11-04T10:46:35.621Z,12.30
2022-11-04T10:50:13.977Z,12.20
2022-11-04T10:53:16.661Z,12.10
2022-11-04T10:56:12.160Z,12.10
2022-11-04T10:59:09.460Z,12.00
2022-11-04T11:02:00.417Z,12.00
2022-11-04T11:04:47.817Z,12.00
2022-11-04T11:07:37.985Z,12.00
2022-11-04T11:10:34.869Z,12.00
2022-11-04T11:13:36.901Z,12.10
2022-11-04T11:16:27.598Z,12.10
2022-11-04T11:19:19.043Z,12.20
2022-11-04T11:22:04.522Z,12.10
2022-11-04T11:24:49.812Z,12.00
2022-11-04T11:27:35.423Z,12.00
2022-11-04T11:30:25.476Z,11.90
2022-11-04T11:33:17.484Z,11.80
2022-11-04T11:36:13.287Z,11.70
2022-11-04T11:39:05.746Z,11.60
2022-11-04T11:41:59.742Z,11.80
2022-11-04T11:44:51.016Z,11.70
2022-11-04T11:47:42.426Z,11.60
2022-11-04T11:50:34.829Z,11.60
2022-11-04T11:53:24.303Z,11.60
2022-11-04T11:56:40.311Z,11.60
2022-11-04T12:03:14.094Z,11.50
2022-11-04T12:06:25.230Z,11.50
2022-11-04T12:09:34.616Z,11.60
2022-11-04T12:12:58.587Z,11.50
2022-11-04T12:16:31.992Z,11.50
2022-11-04T12:19:33.382Z,11.50
2022-11-04T12:22:43.215Z,11.50
2022-11-04T12:25:44.002Z,11.50
2022-11-04T12:28:53.616Z,11.50
2022-11-04T12:31:55.036Z,11.40
2022-11-04T12:34:52.292Z,11.40
2022-11-04T12:37:55.298Z,11.40
2022-11-04T12:41:05.050Z,11.40
2022-11-04T12:44:17.342Z,11.40
2022-11-04T12:47:11.484Z,11.40
2022-11-04T12:50:15.115Z,11.40
2022-11-04T12:53:10.193Z,11.40
2022-11-04T12:56:11.449Z,11.40
2022-11-04T12:59:15.574Z,11.40
2022-11-04T13:02:23.890Z,11.40
2022-11-04T13:05:26.532Z,11.30
2022-11-04T13:08:29.070Z,11.30
2022-11-04T13:11:25.876Z,11.30
2022-11-04T13:14:29.498Z,11.30
2022-11-04T13:17:21.999Z,11.30
2022-11-04T13:20:23.043Z,11.30
2022-11-04T13:23:25.718Z,11.30
2022-11-04T13:26:16.513Z,11.30
2022-11-04T13:29:12.822Z,11.30
2022-11-04T13:32:16.411Z,11.30
2022-11-04T13:35:24.370Z,11.30
2022-11-04T13:38:18.637Z,11.40
2022-11-04T13:41:21.592Z,11.30
2022-11-04T13:44:28.547Z,11.30
2022-11-04T13:47:38.561Z,11.30
2022-11-04T13:50:43.336Z,11.20
2022-11-04T13:53:56.871Z,11.20
2022-11-04T13:56:44.824Z,11.20
2022-11-04T13:59:30.925Z,11.10
2022-11-04T14:02:19.668Z,11.10
2022-11-04T14:05:23.819Z,11.10
2022-11-04T14:08:18.109Z,11.20
2022-11-04T14:11:10.251Z,11.20
2022-11-04T14:14:17.189Z,11.30
2022-11-04T14:17:07.325Z,11.40
2022-11-04T14:19:56.135Z,11.40
2022-11-04T14:22:44.953Z,11.50
2022-11-04T14:25:38.454Z,11.70
2022-11-04T14:28:29.688Z,11.70
2022-11-04T14:31:35.359Z,11.60
2022-11-04T14:34:41.072Z,11.50
2022-11-04T14:37:38.407Z,11.50
2022-11-04T14:40:46.873Z,11.40
2022-11-04T14:43:36.179Z,11.40
2022-11-04T14:46:36.707Z,11.30
2022-11-04T14:49:28.532Z,11.30
2022-11-04T14:52:21.909Z,11.20
2022-11-04T14:55:23.578Z,11.10
2022-11-04T14:58:28.067Z,11.00
2022-11-04T15:01:15.478Z,11.00
2022-11-04T15:04:32.511Z,11.00
2022-11-04T15:07:46.888Z,10.90
2022-11-04T15:10:34.416Z,10.90
2022-11-04T15:13:21.105Z,10.90
2022-11-04T15:16:18.697Z,10.90
2022-11-04T15:19:09.165Z,10.90
2022-11-04T15:21:59.431Z,10.90
2022-11-04T15:24:45.998Z,10.90
2022-11-04T15:27:34.655Z,10.90
2022-11-04T15:30:27.723Z,10.90
2022-11-04T15:33:17.265Z,10.90
2022-11-04T15:36:03.068Z,10.80
2022-11-04T15:39:02.939Z,10.80
2022-11-04T15:42:09.273Z,10.80
2022-11-04T15:44:55.970Z,10.80
2022-11-04T15:47:41.476Z,10.80
2022-11-04T15:50:26.902Z,10.70
2022-11-04T15:53:16.393Z,10.70
2022-11-04T15:56:02.569Z,10.70
2022-11-04T15:58:51.017Z,10.70
2022-11-04T16:01:48.503Z,10.70
2022-11-04T16:04:36.208Z,10.70
2022-11-04T16:07:24.174Z,10.70
2022-11-04T16:10:32.519Z,10.70
2022-11-04T16:13:22.916Z,10.70
2022-11-04T16:16:28.871Z,10.70
2022-11-04T16:19:24.268Z,10.70
2022-11-04T16:22:10.681Z,10.70
2022-11-04T16:25:01.854Z,10.70
2022-11-04T16:27:47.883Z,10.70
2022-11-04T16:30:38.121Z,10.70
2022-11-04T16:33:23.802Z,10.60
2022-11-04T16:36:17.672Z,10.60
2022-11-04T16:39:10.178Z,10.60
2022-11-04T16:41:56.736Z,10.60
2022-11-04T16:44:48.318Z,10.60
2022-11-04T16:47:38.608Z,10.60
2022-11-04T16:50:25.193Z,10.60
2022-11-04T16:53:13.499Z,10.60
2022-11-04T16:56:02.628Z,10.60
2022-11-04T16:58:47.874Z,10.60
2022-11-04T17:01:33.297Z,10.60
2022-11-04T17:04:18.936Z,10.60
2022-11-04T17:07:08.052Z,10.60
2022-11-04T17:09:55.867Z,10.70
2022-11-04T17:12:42.181Z,10.70
2022-11-04T17:15:27.720Z,10.70
2022-11-04T17:18:18.977Z,10.70
2022-11-04T17:21:13.795Z,10.70
2022-11-04T17:23:59.122Z,10.70
2022-11-04T17:26:44.630Z,10.70
2022-11-04T17:29:30.151Z,10.70
2022-11-04T17:32:17.891Z,10.70
2022-11-04T17:35:03.558Z,10.70
2022-11-04T17:37:53.173Z,10.70
2022-11-04T17:40:59.306Z,10.60
2022-11-04T17:44:05.137Z,10.60
2022-11-04T17:46:50.634Z,10.60
2022-11-04T17:49:45.535Z,10.60
2022-11-04T17:52:33.601Z,10.50
2022-11-04T17:55:27.110Z,10.50
2022-11-04T17:58:17.560Z,10.50
2022-11-04T18:01:07.303Z,10.50
2022-11-04T18:03:53.892Z,10.50
2022-11-04T18:06:39.791Z,10.50
2022-11-04T18:09:25.092Z,10.40
2022-11-04T18:12:29.144Z,10.40
2022-11-04T18:15:17.283Z,10.50
2022-11-04T18:18:05.430Z,10.40
2022-11-04T18:20:50.760Z,10.50
2022-11-04T18:23:36.243Z,10.40
2022-11-04T18:26:22.297Z,10.40
2022-11-04T18:29:08.027Z,10.40
2022-11-04T18:31:54.051Z,10.40
2022-11-04T18:34:39.752Z,10.40
2022-11-04T18:37:28.565Z,10.40
2022-11-04T18:40:14.303Z,10.30
2022-11-04T18:43:08.707Z,10.30
2022-11-04T18:45:54.801Z,10.30
2022-11-04T18:48:41.138Z,10.30
2022-11-04T18:51:27.109Z,10.30
2022-11-04T18:54:13.303Z,10.20
2022-11-04T18:57:01.812Z,10.20
2022-11-04T18:59:49.424Z,10.20
2022-11-04T19:02:37.932Z,10.10
2022-11-04T19:05:26.949Z,10.10
2022-11-04T19:08:12.693Z,10.10
2022-11-04T19:11:01.461Z,10.10
2022-11-04T19:13:57.818Z,10.10
2022-11-04T19:16:48.431Z,10.10
2022-11-04T19:19:33.748Z,10.10
2022-11-04T19:22:19.195Z,10.10
2022-11-04T19:25:05.388Z,10.10
2022-11-04T19:28:18.548Z,10.10
2022-11-04T19:31:00.754Z,10.10
2022-11-04T19:33:50.380Z,10.10
2022-11-04T19:36:37.442Z,10.10
2022-11-04T19:39:23.105Z,10.10
2022-11-04T19:42:29.728Z,10.10
2022-11-04T19:45:15.511Z,10.10
2022-11-04T19:48:00.842Z,10.20
2022-11-04T19:50:50.497Z,10.20
2022-11-04T19:53:38.837Z,10.20
2022-11-04T19:56:25.107Z,10.20
2022-11-04T19:59:11.351Z,10.20
2022-11-04T20:01:56.979Z,10.30
2022-11-04T20:04:42.821Z,10.30
2022-11-04T20:07:31.058Z,10.20
2022-11-04T20:10:16.495Z,10.20
2022-11-04T20:13:21.220Z,10.20
2022-11-04T20:16:12.950Z,10.20
2022-11-04T20:19:02.109Z,10.20
2022-11-04T20:21:47.627Z,10.20
2022-11-04T20:24:33.488Z,10.20
2022-11-04T20:27:19.176Z,10.20
2022-11-04T20:30:06.015Z,10.30
2022-11-04T20:32:51.918Z,10.20
2022-11-04T20:35:40.486Z,10.20
2022-11-04T20:38:26.023Z,10.20
2022-11-04T20:41:18.448Z,10.20
2022-11-04T20:44:04.184Z,10.20
2022-11-04T20:46:49.632Z,10.20
2022-11-04T20:49:35.335Z,10.10
2022-11-04T20:52:22.229Z,10.10
2022-11-04T20:55:08.607Z,10.20
2022-11-04T20:57:54.386Z,10.20
2022-11-04T21:00:40.278Z,10.20
2022-11-04T21:03:25.510Z,10.20
2022-11-04T21:06:11.612Z,10.20
2022-11-04T21:09:00.473Z,10.20
2022-11-04T21:11:46.802Z,10.20
2022-11-04T21:14:34.748Z,10.20
2022-11-04T21:17:22.805Z,10.20
2022-11-04T21:20:12.988Z,10.20
2022-11-04T21:22:58.193Z,10.20
2022-11-04T21:25:47.681Z,10.30
2022-11-04T21:28:37.740Z,10.30
2022-11-04T21:31:24.600Z,10.30
2022-11-04T21:34:10.896Z,10.30
2022-11-04T21:36:58.891Z,10.30
2022-11-04T21:39:46.335Z,10.30
2022-11-04T21:42:31.682Z,10.20
2022-11-04T21:45:17.624Z,10.10
2022-11-04T21:48:03.016Z,10.10
2022-11-04T21:50:48.257Z,10.10
2022-11-04T21:53:36.433Z,10.00
2022-11-04T21:56:33.112Z,9.90
2022-11-04T21:59:18.993Z,9.90
2022-11-04T22:02:04.744Z,9.90
2022-11-04T22:04:50.381Z,9.90
2022-11-04T22:07:54.043Z,9.90
2022-11-04T22:10:39.609Z,9.90
2022-11-04T22:13:25.400Z,9.90
2022-11-04T22:16:22.597Z,9.80
2022-11-04T22:19:11.022Z,9.90
2022-11-04T22:21:56.311Z,9.90
2022-11-04T22:24:41.644Z,9.90
2022-11-04T22:27:28.997Z,9.90
2022-11-04T22:30:16.965Z,10.00
2022-11-04T22:33:02.842Z,10.00
2022-11-04T22:35:50.620Z,10.00
2022-11-04T22:38:37.020Z,10.10
2022-11-04T22:41:28.132Z,10.10
2022-11-04T22:44:16.173Z,10.10
2022-11-04T22:47:02.578Z,10.10
2022-11-04T22:49:48.222Z,10.10
2022-11-04T22:52:33.754Z,10.10
2022-11-04T22:55:21.371Z,10.10
2022-11-04T22:58:09.355Z,10.10
2022-11-04T23:01:00.894Z,10.20
2022-11-04T23:03:49.932Z,10.10
2022-11-04T23:06:35.602Z,10.10
2022-11-04T23:09:21.166Z,10.00
2022-11-04T23:12:27.590Z,9.90
2022-11-04T23:15:31.480Z,9.90
2022-11-04T23:18:35.530Z,9.90
2022-11-04T23:21:40.939Z,9.80
2022-11-04T23:24:44.863Z,9.80
2022-11-04T23:27:50.557Z,9.80
2022-11-04T23:30:41.895Z,9.70
2022-11-04T23:33:45.701Z,9.70
2022-11-04T23:36:49.703Z,9.80
2022-11-04T23:39:40.233Z,9.70
2022-11-04T23:42:25.571Z,9.70
2022-11-04T23:45:43.502Z,9.70
2022-11-04T23:48:46.930Z,9.80
2022-11-04T23:51:50.996Z,9.60
2022-11-04T23:54:55.136Z,9.40
2022-11-04T23:57:58.986Z,9.50
